VOE36Z LFSL-LFPO
Flight info
| Callsign | VOE36Z |
|---|---|
| Flight time | N/A |
| Altitude | 34000 |
| Route | MAKOX DCT SOLNO DCT BALAN DCT BEVOL/N0405F300 UT158 AMB |
| Aircraft | A319/M-SDE3FGHIRWY/LB1 |
Departure
| Time | N/A |
|---|---|
| Airport | Brive Souillac airport (LFSL) |
Arrival
| Time | 2026-05-07 18:58 |
|---|---|
| Airport | Paris-Orly Airport (LFPO) |
| Time | Latitude | Longitude | Altitude | Speed | Heading |
|---|---|---|---|---|---|
| 2026-05-07 18:34 | 46.88042 | 0.95811 | 31989 ft | 409 kts | 348° |
| 2026-05-07 18:34 | 46.90833 | 0.95222 | 31991 ft | 409 kts | 348° |
| 2026-05-07 18:35 | 46.96460 | 0.94068 | 31996 ft | 411 kts | 348° |
| 2026-05-07 18:35 | 46.99366 | 0.93536 | 31993 ft | 428 kts | 353° |
| 2026-05-07 18:35 | 47.02383 | 0.93615 | 31992 ft | 446 kts | 4° |
| 2026-05-07 18:36 | 47.08570 | 0.95444 | 31997 ft | 458 kts | 10° |
| 2026-05-07 18:36 | 47.14843 | 0.97456 | 31989 ft | 459 kts | 10° |
| 2026-05-07 18:37 | 47.21045 | 0.99440 | 31987 ft | 459 kts | 10° |
| 2026-05-07 18:37 | 47.27270 | 1.01432 | 31997 ft | 459 kts | 10° |
| 2026-05-07 18:38 | 47.33501 | 1.03426 | 31987 ft | 458 kts | 9° |
| 2026-05-07 18:38 | 47.39755 | 1.05431 | 32004 ft | 458 kts | 10° |
| 2026-05-07 18:39 | 47.45875 | 1.07975 | 31997 ft | 459 kts | 17° |
| 2026-05-07 18:39 | 47.51751 | 1.11007 | 31865 ft | 435 kts | 17° |
| 2026-05-07 18:39 | 47.54597 | 1.12467 | 31526 ft | 426 kts | 17° |
| 2026-05-07 18:40 | 47.57369 | 1.13876 | 30995 ft | 424 kts | 17° |
| 2026-05-07 18:40 | 47.60173 | 1.15293 | 30449 ft | 422 kts | 17° |
| 2026-05-07 18:40 | 47.62918 | 1.16677 | 29994 ft | 418 kts | 17° |
| 2026-05-07 18:40 | 47.65660 | 1.18062 | 29459 ft | 414 kts | 17° |
| 2026-05-07 18:41 | 47.68389 | 1.19445 | 28941 ft | 410 kts | 17° |
| 2026-05-07 18:41 | 47.71058 | 1.20804 | 28442 ft | 407 kts | 17° |
| 2026-05-07 18:41 | 47.73744 | 1.22177 | 27945 ft | 404 kts | 17° |
| 2026-05-07 18:41 | 47.76364 | 1.23520 | 27486 ft | 401 kts | 17° |
| 2026-05-07 18:42 | 47.79014 | 1.24878 | 27028 ft | 398 kts | 17° |
| 2026-05-07 18:42 | 47.81591 | 1.26200 | 26601 ft | 395 kts | 17° |
| 2026-05-07 18:42 | 47.84195 | 1.27537 | 26150 ft | 392 kts | 17° |
| 2026-05-07 18:42 | 47.86745 | 1.28845 | 25708 ft | 389 kts | 17° |
| 2026-05-07 18:43 | 47.89304 | 1.30156 | 25135 ft | 385 kts | 17° |
| 2026-05-07 18:43 | 47.91834 | 1.31456 | 24535 ft | 382 kts | 17° |
| 2026-05-07 18:43 | 47.94308 | 1.32731 | 23948 ft | 379 kts | 17° |
| 2026-05-07 18:43 | 47.96793 | 1.34014 | 23321 ft | 375 kts | 17° |
| 2026-05-07 18:44 | 47.99233 | 1.35276 | 22663 ft | 372 kts | 17° |
| 2026-05-07 18:44 | 48.01677 | 1.36541 | 22037 ft | 368 kts | 17° |
| 2026-05-07 18:44 | 48.04066 | 1.37778 | 21455 ft | 364 kts | 17° |
| 2026-05-07 18:44 | 48.06397 | 1.39266 | 20868 ft | 362 kts | 29° |
| 2026-05-07 18:45 | 48.08477 | 1.41287 | 20155 ft | 358 kts | 32° |
| 2026-05-07 18:45 | 48.10545 | 1.43368 | 19458 ft | 355 kts | 33° |
| 2026-05-07 18:45 | 48.12567 | 1.45414 | 18800 ft | 351 kts | 33° |
| 2026-05-07 18:45 | 48.14579 | 1.47459 | 18198 ft | 346 kts | 33° |
| 2026-05-07 18:46 | 48.16551 | 1.49458 | 17505 ft | 342 kts | 33° |
| 2026-05-07 18:46 | 48.18524 | 1.51457 | 16832 ft | 339 kts | 33° |
| 2026-05-07 18:46 | 48.20474 | 1.53427 | 16182 ft | 335 kts | 32° |
| 2026-05-07 18:46 | 48.22381 | 1.55354 | 15571 ft | 332 kts | 32° |
| 2026-05-07 18:47 | 48.24287 | 1.57288 | 14967 ft | 328 kts | 32° |
| 2026-05-07 18:47 | 48.26173 | 1.59204 | 14372 ft | 325 kts | 32° |
| 2026-05-07 18:47 | 48.28022 | 1.61083 | 13810 ft | 322 kts | 32° |
| 2026-05-07 18:47 | 48.29879 | 1.62972 | 13155 ft | 319 kts | 32° |
| 2026-05-07 18:48 | 48.31711 | 1.64836 | 12511 ft | 316 kts | 32° |
| 2026-05-07 18:48 | 48.33510 | 1.66670 | 11883 ft | 313 kts | 33° |
| 2026-05-07 18:48 | 48.35305 | 1.68509 | 11258 ft | 310 kts | 33° |
| 2026-05-07 18:48 | 48.37070 | 1.70317 | 10642 ft | 307 kts | 33° |
| 2026-05-07 18:49 | 48.38813 | 1.72097 | 10027 ft | 304 kts | 33° |
| 2026-05-07 18:49 | 48.40561 | 1.73881 | 9356 ft | 302 kts | 32° |
| 2026-05-07 18:49 | 48.42285 | 1.75642 | 8734 ft | 297 kts | 32° |
| 2026-05-07 18:49 | 48.43975 | 1.77374 | 8154 ft | 290 kts | 33° |
| 2026-05-07 18:50 | 48.45610 | 1.79053 | 7665 ft | 283 kts | 33° |
| 2026-05-07 18:50 | 48.47234 | 1.80722 | 7257 ft | 281 kts | 33° |
| 2026-05-07 18:50 | 48.48856 | 1.82389 | 6817 ft | 280 kts | 33° |
| 2026-05-07 18:50 | 48.50448 | 1.84022 | 6384 ft | 279 kts | 33° |
| 2026-05-07 18:51 | 48.52053 | 1.85672 | 5947 ft | 276 kts | 33° |
| 2026-05-07 18:51 | 48.53632 | 1.87298 | 5575 ft | 270 kts | 33° |
| 2026-05-07 18:51 | 48.55138 | 1.88851 | 5505 ft | 254 kts | 33° |
| 2026-05-07 18:51 | 48.56542 | 1.90299 | 5417 ft | 240 kts | 33° |
| 2026-05-07 18:52 | 48.57738 | 1.91976 | 5306 ft | 229 kts | 52° |
| 2026-05-07 18:52 | 48.58520 | 1.93969 | 5209 ft | 217 kts | 61° |
| 2026-05-07 18:52 | 48.59228 | 1.95934 | 5114 ft | 209 kts | 61° |
| 2026-05-07 18:52 | 48.59915 | 1.97840 | 5024 ft | 208 kts | 61° |
| 2026-05-07 18:53 | 48.60604 | 1.99759 | 4955 ft | 207 kts | 60° |
| 2026-05-07 18:53 | 48.61294 | 2.01680 | 4765 ft | 206 kts | 60° |
| 2026-05-07 18:53 | 48.61973 | 2.03575 | 4508 ft | 206 kts | 60° |
| 2026-05-07 18:53 | 48.62660 | 2.05491 | 4227 ft | 207 kts | 61° |
| 2026-05-07 18:54 | 48.63344 | 2.07402 | 3944 ft | 209 kts | 61° |
| 2026-05-07 18:54 | 48.64038 | 2.09341 | 3661 ft | 209 kts | 61° |
| 2026-05-07 18:54 | 48.64722 | 2.11256 | 3383 ft | 208 kts | 61° |
| 2026-05-07 18:54 | 48.65411 | 2.13185 | 3102 ft | 207 kts | 61° |
| 2026-05-07 18:55 | 48.66087 | 2.15078 | 2821 ft | 205 kts | 61° |
| 2026-05-07 18:55 | 48.66754 | 2.16947 | 2546 ft | 196 kts | 61° |
| 2026-05-07 18:55 | 48.67382 | 2.18709 | 2302 ft | 185 kts | 61° |
| 2026-05-07 18:55 | 48.67971 | 2.20363 | 2045 ft | 175 kts | 61° |
| 2026-05-07 18:56 | 48.68534 | 2.21945 | 1809 ft | 165 kts | 60° |
| 2026-05-07 18:56 | 48.69053 | 2.23404 | 1601 ft | 152 kts | 61° |
| 2026-05-07 18:56 | 48.69524 | 2.24729 | 1398 ft | 135 kts | 61° |
| 2026-05-07 18:56 | 48.69949 | 2.25923 | 1223 ft | 127 kts | 61° |
| 2026-05-07 18:57 | 48.70363 | 2.27086 | 1073 ft | 124 kts | 61° |
| 2026-05-07 18:57 | 48.70772 | 2.28228 | 883 ft | 123 kts | 61° |
| 2026-05-07 18:57 | 48.71177 | 2.29345 | 721 ft | 122 kts | 61° |
| 2026-05-07 18:57 | 48.71576 | 2.30482 | 575 ft | 121 kts | 62° |
| 2026-05-07 18:58 | 48.71969 | 2.31599 | 404 ft | 120 kts | 62° |
| 2026-05-07 18:58 | 48.72359 | 2.32700 | 292 ft | 110 kts | 63° |
| 2026-05-07 18:58 | 48.72647 | 2.33526 | 287 ft | 64 kts | 62° |
| 2026-05-07 18:58 | 48.72760 | 2.33924 | 287 ft | 26 kts | 82° |
| 2026-05-07 18:59 | 48.72778 | 2.34106 | 291 ft | 17 kts | 81° |
| 2026-05-07 18:59 | 48.72796 | 2.34290 | 285 ft | 19 kts | 82° |
| 2026-05-07 18:59 | 48.72814 | 2.34489 | 285 ft | 19 kts | 82° |
| 2026-05-07 18:59 | 48.72832 | 2.34680 | 285 ft | 19 kts | 82° |
| 2026-05-07 19:00 | 48.72851 | 2.34881 | 290 ft | 20 kts | 82° |
| 2026-05-07 19:00 | 48.72871 | 2.35089 | 286 ft | 21 kts | 82° |
| 2026-05-07 19:00 | 48.72891 | 2.35310 | 287 ft | 22 kts | 82° |
| 2026-05-07 19:00 | 48.72908 | 2.35483 | 289 ft | 10 kts | 79° |
| 2026-05-07 19:01 | 48.72954 | 2.35532 | 287 ft | 4 kts | 52° |
| 2026-05-07 19:01 | 48.72952 | 2.35580 | 287 ft | 5 kts | 103° |
| 2026-05-07 19:01 | 48.72941 | 2.35643 | 287 ft | 7 kts | 104° |
| 2026-05-07 19:01 | 48.72935 | 2.35683 | 289 ft | 0 kts | 104° |